Tijnje, Netherlands
Current Conditions -  °F | °C
As of 2:29 AM on Tuesday 21 Oct 2014 (Local Time) from EHLW Reporting Station
Broken Clouds Broken Clouds  
Wind Chill: 54°   Ceiling: 7000
Heat Index: 54°   Visibility: 6mi
Dew Point: 54°   Wind: 6mph
Humidity: 100%   Direction: 220°SW
Pressure: 29.77"   Gusts: NA
Location:  53.03°N, 5.99°E
Report Text: EHLW 210029Z AUTO 22005KT 9999 FEW023 BKN070 BKN077 12/12 Q1008 BLU
Loading
Personal Weather Stations






























Interactive Weather Map
Tropical Storm Tracking
New forecast layout! Learn more

10-Day Weather Forecast

Advertisements
Track Severe Weather on mobile